createdAt,value
2017-10-22T00:01:02.875Z,71.50
2017-10-22T00:03:30.482Z,71.60
2017-10-22T00:05:58.133Z,71.60
2017-10-22T00:08:25.723Z,71.70
2017-10-22T00:10:53.324Z,71.80
2017-10-22T00:13:20.966Z,72.00
2017-10-22T00:15:49.376Z,71.90
2017-10-22T00:18:16.995Z,71.80
2017-10-22T00:20:44.637Z,71.90
2017-10-22T00:23:12.269Z,72.00
2017-10-22T00:25:39.856Z,72.00
2017-10-22T00:28:07.504Z,72.00
2017-10-22T00:30:35.091Z,71.90
2017-10-22T00:33:02.732Z,72.00
2017-10-22T00:35:30.328Z,72.00
2017-10-22T00:37:59.473Z,72.00
2017-10-22T00:40:27.074Z,72.70
2017-10-22T00:42:54.672Z,72.10
2017-10-22T00:45:22.315Z,71.90
2017-10-22T00:47:50.672Z,72.00
2017-10-22T00:50:18.324Z,71.90
2017-10-22T00:52:45.925Z,72.70
2017-10-22T00:55:13.581Z,71.80
2017-10-22T00:57:41.984Z,71.90
2017-10-22T01:00:09.633Z,71.90
2017-10-22T01:02:37.987Z,72.00
2017-10-22T01:05:05.583Z,71.90
2017-10-22T01:07:33.221Z,72.20
2017-10-22T01:10:01.657Z,72.00
2017-10-22T01:12:29.299Z,72.00
2017-10-22T01:14:56.945Z,71.90
2017-10-22T01:17:25.304Z,72.10
2017-10-22T01:19:53.709Z,72.10
2017-10-22T01:22:21.304Z,72.10
2017-10-22T01:24:48.956Z,72.20
2017-10-22T01:27:16.558Z,72.20
2017-10-22T01:29:44.161Z,72.20
2017-10-22T01:32:11.813Z,72.30
2017-10-22T01:34:39.405Z,72.30
2017-10-22T01:37:07.006Z,72.30
2017-10-22T01:39:35.448Z,72.30
2017-10-22T01:42:03.041Z,72.30
2017-10-22T01:44:30.675Z,72.40
2017-10-22T01:46:58.313Z,72.40
2017-10-22T01:49:25.950Z,72.50
2017-10-22T01:51:54.319Z,72.60
2017-10-22T01:54:22.731Z,72.70
2017-10-22T01:56:50.370Z,72.60
2017-10-22T01:59:18.733Z,72.80
2017-10-22T02:01:46.386Z,72.80
2017-10-22T02:04:13.985Z,72.10
2017-10-22T02:06:41.589Z,72.80
2017-10-22T02:09:09.240Z,72.80
2017-10-22T02:11:36.838Z,72.80
2017-10-22T02:14:04.438Z,72.90
2017-10-22T02:16:32.081Z,73.00
2017-10-22T02:19:00.447Z,73.00
2017-10-22T02:21:28.858Z,73.10
2017-10-22T02:23:56.451Z,72.90
2017-10-22T02:26:24.041Z,73.00
2017-10-22T02:28:51.682Z,73.00
2017-10-22T02:31:19.283Z,73.10
2017-10-22T02:33:47.636Z,73.10
2017-10-22T02:36:15.281Z,73.00
2017-10-22T02:38:42.871Z,73.20
2017-10-22T02:41:11.272Z,73.20
2017-10-22T02:43:38.913Z,73.10
2017-10-22T02:46:07.330Z,73.10
2017-10-22T02:48:34.922Z,73.10
2017-10-22T02:51:02.523Z,73.20
2017-10-22T02:53:30.936Z,73.30
2017-10-22T02:55:58.534Z,73.20
2017-10-22T02:58:26.132Z,73.20
2017-10-22T03:00:54.533Z,73.30
2017-10-22T03:03:22.140Z,73.30
2017-10-22T03:05:49.787Z,73.20
2017-10-22T03:08:17.386Z,73.30
2017-10-22T03:10:45.748Z,73.30
2017-10-22T03:13:13.390Z,73.20
2017-10-22T03:15:40.989Z,73.40
2017-10-22T03:18:09.395Z,73.30
2017-10-22T03:20:36.997Z,73.10
2017-10-22T03:23:04.640Z,73.20
2017-10-22T03:25:32.270Z,73.20
2017-10-22T03:27:59.868Z,73.10
2017-10-22T03:30:27.511Z,73.10
2017-10-22T03:32:55.237Z,73.20
2017-10-22T03:35:23.600Z,73.20
2017-10-22T03:37:51.240Z,73.20
2017-10-22T03:40:18.846Z,73.10
2017-10-22T03:42:47.279Z,73.20
2017-10-22T03:45:14.876Z,73.20
2017-10-22T03:47:43.247Z,73.20
2017-10-22T03:50:10.903Z,73.20
2017-10-22T03:52:38.496Z,73.20
2017-10-22T03:55:06.865Z,73.20
2017-10-22T03:57:35.265Z,73.20
2017-10-22T04:00:02.861Z,73.10
2017-10-22T04:02:30.505Z,73.20
2017-10-22T04:04:58.097Z,73.20
2017-10-22T04:07:25.696Z,73.00
2017-10-22T04:09:54.121Z,73.00
2017-10-22T04:12:21.721Z,73.00
2017-10-22T04:14:50.084Z,73.20
2017-10-22T04:17:17.734Z,73.10
2017-10-22T04:19:45.331Z,73.10
2017-10-22T04:22:13.747Z,73.10
2017-10-22T04:24:41.347Z,73.00
2017-10-22T04:27:08.951Z,73.00
2017-10-22T04:29:36.588Z,73.00
2017-10-22T04:32:04.948Z,73.10
2017-10-22T04:34:32.594Z,73.10
2017-10-22T04:37:00.196Z,73.10
2017-10-22T04:39:28.609Z,73.20
2017-10-22T04:41:56.213Z,73.10
2017-10-22T04:44:23.860Z,73.10
2017-10-22T04:46:51.460Z,73.10
2017-10-22T04:49:19.827Z,73.20
2017-10-22T04:51:47.480Z,73.10
2017-10-22T04:54:15.075Z,73.30
2017-10-22T04:56:43.340Z,73.30
2017-10-22T04:59:11.740Z,73.30
2017-10-22T05:01:39.410Z,73.30
2017-10-22T05:04:07.000Z,73.30
2017-10-22T05:06:34.610Z,73.20
2017-10-22T05:09:03.022Z,73.20
2017-10-22T05:11:30.618Z,73.20
2017-10-22T05:13:58.268Z,73.20
2017-10-22T05:16:25.871Z,73.20
2017-10-22T05:18:54.233Z,73.20
2017-10-22T05:21:21.880Z,73.20
2017-10-22T05:23:49.481Z,73.30
2017-10-22T05:26:17.125Z,73.30
2017-10-22T05:28:45.528Z,73.10
2017-10-22T05:31:13.121Z,73.20
2017-10-22T05:33:40.763Z,73.20
2017-10-22T05:36:08.366Z,73.10
2017-10-22T05:38:36.014Z,73.20
2017-10-22T05:41:03.653Z,73.10
2017-10-22T05:43:31.305Z,73.20
2017-10-22T05:45:58.906Z,73.20
2017-10-22T05:48:26.510Z,73.20
2017-10-22T05:50:54.919Z,73.40
2017-10-22T05:53:22.513Z,73.20
2017-10-22T05:55:50.111Z,73.30
2017-10-22T05:58:17.789Z,73.30
2017-10-22T06:00:45.391Z,73.40
2017-10-22T06:03:13.009Z,73.40
2017-10-22T06:05:40.697Z,73.40
2017-10-22T06:08:08.336Z,73.40
2017-10-22T06:10:35.985Z,73.40
2017-10-22T06:13:03.645Z,73.40
2017-10-22T06:15:32.004Z,73.30
2017-10-22T06:17:59.641Z,73.50
2017-10-22T06:20:27.245Z,73.40
2017-10-22T06:22:55.649Z,73.20
2017-10-22T06:25:23.245Z,73.20
2017-10-22T06:27:50.888Z,73.30
2017-10-22T06:30:18.492Z,73.30
2017-10-22T06:32:46.918Z,73.30
2017-10-22T06:35:14.513Z,73.30
2017-10-22T06:37:42.110Z,73.30
2017-10-22T06:40:10.515Z,73.30
2017-10-22T06:42:38.158Z,73.30
2017-10-22T06:45:05.751Z,73.30
2017-10-22T06:47:33.396Z,73.40
2017-10-22T06:50:00.997Z,73.40
2017-10-22T06:52:28.597Z,73.40
2017-10-22T06:54:56.999Z,73.40
2017-10-22T06:57:24.600Z,73.40
2017-10-22T06:59:53.758Z,73.40
2017-10-22T07:02:21.417Z,73.30
2017-10-22T07:04:49.053Z,73.40
2017-10-22T07:07:17.580Z,73.40
2017-10-22T07:09:45.177Z,73.40
2017-10-22T07:12:12.905Z,73.40
2017-10-22T07:14:40.563Z,73.50
2017-10-22T07:17:08.958Z,73.40
2017-10-22T07:19:36.552Z,73.40
2017-10-22T07:22:04.957Z,73.50
2017-10-22T07:24:32.590Z,73.40
2017-10-22T07:27:01.003Z,73.40
2017-10-22T07:29:28.646Z,73.40
2017-10-22T07:31:57.003Z,73.40
2017-10-22T07:34:24.636Z,73.30
2017-10-22T07:36:52.241Z,73.30
2017-10-22T07:39:20.661Z,73.30
2017-10-22T07:41:48.260Z,73.30
2017-10-22T07:44:15.858Z,73.30
2017-10-22T07:46:43.498Z,73.40
2017-10-22T07:49:11.137Z,73.30
2017-10-22T07:51:38.771Z,73.50
2017-10-22T07:54:06.427Z,73.50
2017-10-22T07:56:34.069Z,73.50
2017-10-22T07:59:01.666Z,73.40
2017-10-22T08:01:29.334Z,73.50
2017-10-22T08:03:56.930Z,73.50
2017-10-22T08:06:25.292Z,73.50
2017-10-22T08:08:52.933Z,73.50
2017-10-22T08:11:20.521Z,73.50
2017-10-22T08:13:48.181Z,73.50
2017-10-22T08:16:15.781Z,73.50
2017-10-22T08:18:43.376Z,73.50
2017-10-22T08:21:11.022Z,73.40
2017-10-22T08:23:38.617Z,73.20
2017-10-22T08:26:06.256Z,73.30
2017-10-22T08:28:33.858Z,73.40
2017-10-22T08:31:01.513Z,73.40
2017-10-22T08:33:29.112Z,73.30
2017-10-22T08:35:56.715Z,72.90
2017-10-22T08:38:24.357Z,73.40
2017-10-22T08:40:51.952Z,73.20
2017-10-22T08:43:19.589Z,73.20
2017-10-22T08:45:47.185Z,73.20
2017-10-22T08:48:14.829Z,73.20
2017-10-22T08:50:42.433Z,73.20
2017-10-22T08:53:10.028Z,73.20
2017-10-22T08:55:37.665Z,73.20
2017-10-22T08:58:05.353Z,73.00
2017-10-22T09:00:32.986Z,73.00
2017-10-22T09:03:00.586Z,73.10
2017-10-22T09:05:28.237Z,73.10
2017-10-22T09:07:55.832Z,73.10
2017-10-22T09:10:23.427Z,72.80
2017-10-22T09:12:51.059Z,73.00
2017-10-22T09:15:18.649Z,72.90
2017-10-22T09:17:46.294Z,72.90
2017-10-22T09:20:14.710Z,72.90
2017-10-22T09:22:42.311Z,72.90
2017-10-22T09:25:09.907Z,72.90
2017-10-22T09:27:38.321Z,72.80
2017-10-22T09:30:05.920Z,72.80
2017-10-22T09:32:34.293Z,72.80
2017-10-22T09:35:01.934Z,72.80
2017-10-22T09:37:29.529Z,72.80
2017-10-22T09:39:57.171Z,72.80
2017-10-22T09:42:24.769Z,72.70
2017-10-22T09:44:53.177Z,72.80
2017-10-22T09:47:20.777Z,72.80
2017-10-22T09:49:48.370Z,72.60
2017-10-22T09:52:16.773Z,72.50
2017-10-22T09:54:44.407Z,72.50
2017-10-22T09:57:12.816Z,72.20
2017-10-22T09:59:40.424Z,72.10
2017-10-22T10:02:08.056Z,71.80
2017-10-22T10:04:35.701Z,71.70
2017-10-22T10:07:03.302Z,71.40
2017-10-22T10:09:30.907Z,71.40
2017-10-22T10:11:58.553Z,70.90
2017-10-22T10:14:26.911Z,71.20
2017-10-22T10:16:54.501Z,71.10
2017-10-22T10:19:22.905Z,71.30
2017-10-22T10:21:50.495Z,71.20
2017-10-22T10:24:18.126Z,71.00
2017-10-22T10:26:45.722Z,70.80
2017-10-22T10:29:13.369Z,70.70
2017-10-22T10:31:40.971Z,70.40
2017-10-22T10:34:09.337Z,70.20
2017-10-22T10:36:36.973Z,70.30
2017-10-22T10:39:04.565Z,70.30
2017-10-22T10:41:32.224Z,70.30
2017-10-22T10:43:59.822Z,70.40
2017-10-22T10:46:27.428Z,69.70
2017-10-22T10:48:55.079Z,69.40
2017-10-22T10:51:22.677Z,69.80
2017-10-22T10:53:51.037Z,69.50
2017-10-22T10:56:18.677Z,69.50
2017-10-22T10:58:46.268Z,68.30
2017-10-22T11:01:13.862Z,66.70
2017-10-22T11:03:41.501Z,67.30
2017-10-22T11:06:09.918Z,66.00
2017-10-22T11:08:37.521Z,66.00
2017-10-22T11:11:05.160Z,65.50
2017-10-22T11:13:32.804Z,65.10
2017-10-22T11:16:00.398Z,64.40
2017-10-22T11:18:27.991Z,63.00
2017-10-22T11:20:56.396Z,61.30
2017-10-22T11:23:24.101Z,61.30
2017-10-22T11:25:51.710Z,61.40
2017-10-22T11:28:19.370Z,60.60
2017-10-22T11:30:47.736Z,60.50
2017-10-22T11:33:16.275Z,60.10
2017-10-22T11:35:43.893Z,60.00
2017-10-22T11:38:12.354Z,61.30
2017-10-22T11:40:40.008Z,61.30
2017-10-22T11:43:07.612Z,62.30
2017-10-22T11:45:35.257Z,63.30
2017-10-22T11:48:03.626Z,64.00
2017-10-22T11:50:32.056Z,63.90
2017-10-22T11:52:59.667Z,63.90
2017-10-22T11:55:28.080Z,63.60
2017-10-22T11:57:55.778Z,63.60
2017-10-22T12:00:23.372Z,63.30
2017-10-22T12:02:51.836Z,62.70
2017-10-22T12:05:19.429Z,62.60
2017-10-22T12:07:47.065Z,62.50
2017-10-22T12:10:14.678Z,62.00
2017-10-22T12:12:42.352Z,61.70
2017-10-22T12:15:10.127Z,61.60
2017-10-22T12:17:37.760Z,62.30
2017-10-22T12:20:05.400Z,63.40
2017-10-22T12:22:33.851Z,61.90
2017-10-22T12:25:01.686Z,61.80
2017-10-22T12:27:29.365Z,62.00
2017-10-22T12:29:56.987Z,61.80
2017-10-22T12:32:24.621Z,61.80
2017-10-22T12:34:52.978Z,62.20
2017-10-22T12:37:20.614Z,62.10
2017-10-22T12:39:48.276Z,61.70
2017-10-22T12:42:15.929Z,61.70
2017-10-22T12:44:43.601Z,61.40
2017-10-22T12:47:11.384Z,61.40
2017-10-22T12:49:39.147Z,61.40
2017-10-22T12:52:06.805Z,61.00
2017-10-22T12:54:34.441Z,60.90
2017-10-22T12:57:02.098Z,61.00
2017-10-22T12:59:29.698Z,60.80
2017-10-22T13:01:57.336Z,60.70
2017-10-22T13:04:25.104Z,60.40
2017-10-22T13:06:52.796Z,60.80
2017-10-22T13:09:20.495Z,60.80
2017-10-22T13:11:48.942Z,60.90
2017-10-22T13:14:16.558Z,60.80
2017-10-22T13:16:44.342Z,60.60
2017-10-22T13:19:11.937Z,60.70
2017-10-22T13:21:40.357Z,60.70
2017-10-22T13:24:07.949Z,60.70
2017-10-22T13:26:35.588Z,60.30
2017-10-22T13:29:03.189Z,60.30
2017-10-22T13:31:30.784Z,60.20
2017-10-22T13:33:58.422Z,60.40
2017-10-22T13:36:26.784Z,60.40
2017-10-22T13:38:54.421Z,59.90
2017-10-22T13:41:22.018Z,59.90
2017-10-22T13:43:49.657Z,59.90
2017-10-22T13:46:17.245Z,60.20
2017-10-22T13:48:44.886Z,60.00
2017-10-22T13:51:12.529Z,60.40
2017-10-22T13:53:40.164Z,60.30
2017-10-22T13:56:07.762Z,60.30
2017-10-22T13:58:35.412Z,60.20
2017-10-22T14:01:03.004Z,60.20
2017-10-22T14:03:30.596Z,60.30
2017-10-22T14:05:58.992Z,60.20
2017-10-22T14:08:26.591Z,60.10
2017-10-22T14:10:54.232Z,60.70
2017-10-22T14:13:21.831Z,60.60
2017-10-22T14:15:49.477Z,61.10
2017-10-22T14:18:17.103Z,61.60
2017-10-22T14:20:44.735Z,62.10
2017-10-22T14:23:13.268Z,61.90
2017-10-22T14:25:41.063Z,61.80
2017-10-22T14:28:09.429Z,62.20
2017-10-22T14:30:37.065Z,62.20
2017-10-22T14:33:04.661Z,62.50
2017-10-22T14:35:32.294Z,62.30
2017-10-22T14:37:59.889Z,62.30
2017-10-22T14:40:27.534Z,61.60
2017-10-22T14:42:55.128Z,61.60
2017-10-22T14:45:23.531Z,61.90
2017-10-22T14:47:51.129Z,61.90
2017-10-22T14:50:18.770Z,61.80
2017-10-22T14:52:46.443Z,61.70
2017-10-22T14:55:14.080Z,61.80
2017-10-22T14:57:41.680Z,61.90
2017-10-22T15:00:09.312Z,61.40
2017-10-22T15:02:36.911Z,61.60
2017-10-22T15:05:04.545Z,61.70
2017-10-22T15:07:32.147Z,61.90
2017-10-22T15:10:00.558Z,61.60
2017-10-22T15:12:28.158Z,61.50
2017-10-22T15:14:55.787Z,61.20
2017-10-22T15:17:23.379Z,61.00
2017-10-22T15:19:51.006Z,61.30
2017-10-22T15:22:18.610Z,61.10
2017-10-22T15:24:46.256Z,61.00
2017-10-22T15:27:13.853Z,61.10
2017-10-22T15:29:41.489Z,61.10
2017-10-22T15:32:09.080Z,60.80
2017-10-22T15:34:36.713Z,60.90
2017-10-22T15:37:04.303Z,61.70
2017-10-22T15:39:31.937Z,61.10
2017-10-22T15:41:59.544Z,62.00
2017-10-22T15:44:27.949Z,60.90
2017-10-22T15:46:55.555Z,60.90
2017-10-22T15:49:23.292Z,60.70
2017-10-22T15:51:50.898Z,61.00
2017-10-22T15:54:19.306Z,61.40
2017-10-22T15:56:46.903Z,61.40
2017-10-22T15:59:14.541Z,61.80
2017-10-22T16:01:42.152Z,61.60
2017-10-22T16:04:09.790Z,62.00
2017-10-22T16:06:37.389Z,62.30
2017-10-22T16:09:05.789Z,62.90
2017-10-22T16:11:33.389Z,62.80
2017-10-22T16:14:00.979Z,63.10
2017-10-22T16:16:28.612Z,63.50
2017-10-22T16:18:56.250Z,63.30
2017-10-22T16:21:23.849Z,64.00
2017-10-22T16:23:51.489Z,64.10
2017-10-22T16:26:19.080Z,64.30
2017-10-22T16:28:46.873Z,64.70
2017-10-22T16:31:15.238Z,64.70
2017-10-22T16:33:43.600Z,64.70
2017-10-22T16:36:11.234Z,64.50
2017-10-22T16:38:38.829Z,64.80
2017-10-22T16:41:06.460Z,64.50
2017-10-22T16:43:34.053Z,64.40
2017-10-22T16:46:01.690Z,64.20
2017-10-22T16:48:29.290Z,64.20
2017-10-22T16:50:57.690Z,63.80
2017-10-22T16:53:25.279Z,63.70
2017-10-22T16:55:52.918Z,63.80
2017-10-22T16:58:21.886Z,64.00
2017-10-22T17:00:50.288Z,63.70
2017-10-22T17:03:17.886Z,63.70
2017-10-22T17:05:47.154Z,63.90
2017-10-22T17:08:16.331Z,64.00
2017-10-22T17:10:44.041Z,64.50
2017-10-22T17:13:12.588Z,64.70
2017-10-22T17:15:40.229Z,64.60
2017-10-22T17:18:08.594Z,64.50
2017-10-22T17:21:04.887Z,64.50
2017-10-22T17:23:38.189Z,64.50
2017-10-22T17:26:06.881Z,64.50
2017-10-22T17:28:34.511Z,64.50
2017-10-22T17:31:02.108Z,64.50
2017-10-22T17:33:29.754Z,64.40
2017-10-22T17:35:57.340Z,64.50
2017-10-22T17:38:24.973Z,64.50
2017-10-22T17:40:52.569Z,64.60
2017-10-22T17:43:20.997Z,64.30
2017-10-22T17:45:48.684Z,64.30
2017-10-22T17:48:16.277Z,64.40
2017-10-22T17:50:43.914Z,65.20
2017-10-22T17:53:11.678Z,64.50
2017-10-22T17:55:39.274Z,64.80
2017-10-22T17:58:07.636Z,65.10
2017-10-22T18:00:35.309Z,65.00
2017-10-22T18:03:04.562Z,65.10
2017-10-22T18:05:32.157Z,65.10
2017-10-22T18:07:59.758Z,65.50
2017-10-22T18:10:27.394Z,65.70
2017-10-22T18:12:54.988Z,65.70
2017-10-22T18:15:22.624Z,66.00
2017-10-22T18:17:51.006Z,66.30
2017-10-22T18:20:19.416Z,66.20
2017-10-22T18:22:47.009Z,66.10
2017-10-22T18:25:14.965Z,66.10
2017-10-22T18:27:42.562Z,66.20
2017-10-22T18:30:10.318Z,66.30
2017-10-22T18:32:37.951Z,66.30
2017-10-22T18:35:05.600Z,66.30
2017-10-22T18:37:33.206Z,66.50
2017-10-22T18:40:02.351Z,66.60
2017-10-22T18:42:29.945Z,66.60
2017-10-22T18:44:57.598Z,66.70
2017-10-22T18:47:25.277Z,66.80
2017-10-22T18:49:52.926Z,66.90
2017-10-22T18:52:20.515Z,67.00
2017-10-22T18:54:48.116Z,67.10
2017-10-22T18:57:15.762Z,67.10
2017-10-22T18:59:43.774Z,67.20
2017-10-22T19:02:11.421Z,67.40
2017-10-22T19:04:39.016Z,67.40
2017-10-22T19:07:06.641Z,67.50
2017-10-22T19:09:34.318Z,67.60
2017-10-22T19:12:01.960Z,67.70
2017-10-22T19:14:29.551Z,67.70
2017-10-22T19:16:57.307Z,68.00
2017-10-22T19:19:24.908Z,68.00
2017-10-22T19:21:53.272Z,67.70
2017-10-22T19:24:20.914Z,68.20
2017-10-22T19:26:48.496Z,68.10
2017-10-22T19:29:16.159Z,68.30
2017-10-22T19:31:43.753Z,68.30
2017-10-22T19:34:11.398Z,68.40
2017-10-22T19:36:39.761Z,68.60
2017-10-22T19:39:08.905Z,68.60
2017-10-22T19:41:36.496Z,68.50
2017-10-22T19:44:04.125Z,68.60
2017-10-22T19:46:31.916Z,68.60
2017-10-22T19:48:59.571Z,68.60
2017-10-22T19:51:27.245Z,68.60
2017-10-22T19:53:54.881Z,68.70
2017-10-22T19:56:22.481Z,68.80
2017-10-22T19:58:50.330Z,68.60
2017-10-22T20:01:17.992Z,68.80
2017-10-22T20:03:45.629Z,68.80
2017-10-22T20:06:13.240Z,68.60
2017-10-22T20:08:42.385Z,68.70
2017-10-22T20:11:10.005Z,68.70
2017-10-22T20:13:38.420Z,69.10
2017-10-22T20:16:06.019Z,68.80
2017-10-22T20:18:33.652Z,69.00
2017-10-22T20:21:01.250Z,69.00
2017-10-22T20:23:28.934Z,69.00
2017-10-22T20:25:56.524Z,69.00
2017-10-22T20:28:24.921Z,69.00
2017-10-22T20:30:52.522Z,69.00
2017-10-22T20:33:20.160Z,69.10
2017-10-22T20:35:47.756Z,69.10
2017-10-22T20:38:15.389Z,69.20
2017-10-22T20:40:42.990Z,69.20
2017-10-22T20:43:11.432Z,69.30
2017-10-22T20:45:39.088Z,69.30
2017-10-22T20:48:06.752Z,69.30
2017-10-22T20:50:34.363Z,69.20
2017-10-22T20:53:02.785Z,69.40
2017-10-22T20:55:30.377Z,69.30
2017-10-22T20:57:57.969Z,69.30
2017-10-22T21:00:26.382Z,69.40
2017-10-22T21:02:53.993Z,69.40
2017-10-22T21:05:22.405Z,69.60
2017-10-22T21:07:50.052Z,69.40
2017-10-22T21:10:18.455Z,69.50
2017-10-22T21:12:46.052Z,69.40
2017-10-22T21:15:13.681Z,69.40
2017-10-22T21:17:41.278Z,69.50
2017-10-22T21:20:08.921Z,69.60
2017-10-22T21:22:36.513Z,69.60
2017-10-22T21:25:04.317Z,69.50
2017-10-22T21:27:31.914Z,69.60
2017-10-22T21:29:59.514Z,69.60
2017-10-22T21:32:27.925Z,69.60
2017-10-22T21:34:55.777Z,70.40
2017-10-22T21:37:23.369Z,69.60
2017-10-22T21:39:50.970Z,69.60
2017-10-22T21:42:18.609Z,69.70
2017-10-22T21:44:46.249Z,69.60
2017-10-22T21:47:13.848Z,69.50
2017-10-22T21:49:41.483Z,69.50
2017-10-22T21:52:09.070Z,69.60
2017-10-22T21:54:36.700Z,69.60
2017-10-22T21:57:04.310Z,69.60
2017-10-22T21:59:32.717Z,69.60
2017-10-22T22:02:00.313Z,69.50
2017-10-22T22:04:27.961Z,69.50
2017-10-22T22:06:55.562Z,69.60
2017-10-22T22:09:23.157Z,69.50
2017-10-22T22:11:50.795Z,69.50
2017-10-22T22:14:19.158Z,69.60
2017-10-22T22:16:46.793Z,69.50
2017-10-22T22:19:14.387Z,69.50
2017-10-22T22:21:42.020Z,69.50
2017-10-22T22:24:09.618Z,69.60
2017-10-22T22:26:38.018Z,69.60
2017-10-22T22:29:05.625Z,69.60
2017-10-22T22:31:33.270Z,69.50
2017-10-22T22:34:00.867Z,69.50
2017-10-22T22:36:28.500Z,69.60
2017-10-22T22:38:56.088Z,69.60
2017-10-22T22:41:23.744Z,69.60
2017-10-22T22:43:51.342Z,69.50
2017-10-22T22:46:19.761Z,69.60
2017-10-22T22:48:47.392Z,69.50
2017-10-22T22:51:14.982Z,69.50
2017-10-22T22:53:42.625Z,69.50
2017-10-22T22:56:10.221Z,69.50
2017-10-22T22:58:37.861Z,69.60
2017-10-22T23:01:05.447Z,69.60
2017-10-22T23:03:33.085Z,69.70
2017-10-22T23:06:00.695Z,69.70
2017-10-22T23:08:29.100Z,69.70
2017-10-22T23:10:56.693Z,69.60
2017-10-22T23:13:24.326Z,69.70
2017-10-22T23:15:51.926Z,69.60
2017-10-22T23:18:19.561Z,69.50
2017-10-22T23:20:47.151Z,69.60
2017-10-22T23:23:14.784Z,69.60
2017-10-22T23:25:42.399Z,69.40
2017-10-22T23:28:10.032Z,69.50
2017-10-22T23:30:37.621Z,69.60
2017-10-22T23:33:05.256Z,69.70
2017-10-22T23:35:32.858Z,69.70
2017-10-22T23:38:01.257Z,69.70
2017-10-22T23:40:28.848Z,69.50
2017-10-22T23:42:56.481Z,69.80
2017-10-22T23:45:24.080Z,69.80
2017-10-22T23:47:51.722Z,69.70
2017-10-22T23:50:19.390Z,69.60
2017-10-22T23:52:47.028Z,69.60
2017-10-22T23:55:14.614Z,69.60
2017-10-22T23:57:42.252Z,69.70
